createdAt,value
2018-11-10T00:00:43.266Z,8.90
2018-11-10T00:03:11.745Z,8.90
2018-11-10T00:05:40.188Z,8.90
2018-11-10T00:08:08.679Z,8.90
2018-11-10T00:10:37.148Z,8.90
2018-11-10T00:13:06.493Z,8.90
2018-11-10T00:15:34.932Z,8.80
2018-11-10T00:18:03.460Z,8.80
2018-11-10T00:20:31.906Z,8.80
2018-11-10T00:23:00.343Z,8.80
2018-11-10T00:25:28.896Z,8.80
2018-11-10T00:27:57.332Z,8.80
2018-11-10T00:30:25.878Z,8.80
2018-11-10T00:32:54.348Z,8.70
2018-11-10T00:35:22.921Z,8.70
2018-11-10T00:37:51.399Z,8.70
2018-11-10T00:40:20.194Z,8.70
2018-11-10T00:42:48.629Z,8.60
2018-11-10T00:45:17.064Z,8.70
2018-11-10T00:47:45.673Z,8.60
2018-11-10T00:50:14.112Z,8.60
2018-11-10T00:52:42.669Z,8.60
2018-11-10T00:55:11.153Z,8.60
2018-11-10T00:57:39.642Z,8.50
2018-11-10T01:00:09.757Z,8.50
2018-11-10T01:02:38.537Z,8.50
2018-11-10T01:05:07.225Z,8.50
2018-11-10T01:07:35.684Z,8.50
2018-11-10T01:10:05.130Z,8.40
2018-11-10T01:12:33.548Z,8.40
2018-11-10T01:15:01.961Z,8.40
2018-11-10T01:17:30.700Z,8.40
2018-11-10T01:19:59.139Z,8.40
2018-11-10T01:22:27.621Z,8.40
2018-11-10T01:24:56.440Z,8.40
2018-11-10T01:27:24.856Z,8.30
2018-11-10T01:29:53.366Z,8.30
2018-11-10T01:32:22.294Z,8.30
2018-11-10T01:34:50.735Z,8.30
2018-11-10T01:37:19.149Z,7.80
2018-11-10T01:39:47.916Z,8.30
2018-11-10T01:42:16.396Z,8.30
2018-11-10T01:44:44.861Z,8.30
2018-11-10T01:47:13.796Z,8.30
2018-11-10T01:49:42.249Z,8.30
2018-11-10T01:52:10.776Z,8.30
2018-11-10T01:54:39.641Z,8.30
2018-11-10T01:57:08.964Z,8.30
2018-11-10T01:59:37.394Z,8.30
2018-11-10T02:02:06.415Z,8.30
2018-11-10T02:04:34.917Z,8.30
2018-11-10T02:07:03.389Z,8.30
2018-11-10T02:09:32.144Z,8.30
2018-11-10T02:12:00.673Z,8.40
2018-11-10T02:14:29.153Z,8.40
2018-11-10T02:16:57.675Z,8.30
2018-11-10T02:19:26.162Z,8.30
2018-11-10T02:21:54.764Z,8.30
2018-11-10T02:24:23.557Z,8.40
2018-11-10T02:26:52.006Z,8.30
2018-11-10T02:29:20.487Z,8.30
2018-11-10T02:31:48.969Z,8.30
2018-11-10T02:34:17.369Z,8.30
2018-11-10T02:36:45.796Z,8.30
2018-11-10T02:39:14.462Z,8.30
2018-11-10T02:41:42.908Z,8.30
2018-11-10T02:44:11.353Z,8.30
2018-11-10T02:46:40.151Z,8.20
2018-11-10T02:49:09.325Z,8.30
2018-11-10T02:51:37.790Z,8.30
2018-11-10T02:54:06.248Z,8.30
2018-11-10T02:56:34.680Z,8.30
2018-11-10T02:59:03.120Z,8.30
2018-11-10T03:01:31.608Z,8.30
2018-11-10T03:04:00.007Z,8.30
2018-11-10T03:06:28.416Z,8.30
2018-11-10T03:08:57.325Z,8.30
2018-11-10T03:11:25.736Z,8.30
2018-11-10T03:13:54.137Z,8.30
2018-11-10T03:16:22.886Z,8.30
2018-11-10T03:18:51.252Z,8.20
2018-11-10T03:21:19.701Z,9.80
2018-11-10T03:23:48.546Z,8.20
2018-11-10T03:26:16.949Z,8.20
2018-11-10T03:28:45.361Z,8.20
2018-11-10T03:31:13.976Z,8.10
2018-11-10T03:33:42.409Z,8.10
2018-11-10T03:36:10.795Z,8.10
2018-11-10T03:38:39.701Z,8.10
2018-11-10T03:41:08.151Z,8.00
2018-11-10T03:43:36.597Z,8.10
2018-11-10T03:46:05.365Z,8.10
2018-11-10T03:48:33.816Z,8.00
2018-11-10T03:51:02.254Z,8.00
2018-11-10T03:53:30.716Z,8.00
2018-11-10T03:55:59.132Z,8.00
2018-11-10T03:58:27.553Z,8.00
2018-11-10T04:00:56.185Z,8.00
2018-11-10T04:03:24.581Z,8.10
2018-11-10T04:05:53.017Z,8.10
2018-11-10T04:08:21.641Z,8.10
2018-11-10T04:10:50.064Z,8.10
2018-11-10T04:13:18.468Z,8.10
2018-11-10T04:15:46.941Z,8.10
2018-11-10T04:18:15.344Z,8.10
2018-11-10T04:20:43.789Z,8.10
2018-11-10T04:23:12.532Z,8.10
2018-11-10T04:25:40.941Z,8.10
2018-11-10T04:28:10.310Z,8.10
2018-11-10T04:30:38.749Z,8.10
2018-11-10T04:33:07.271Z,8.10
2018-11-10T04:35:37.475Z,8.10
2018-11-10T04:38:06.092Z,8.20
2018-11-10T04:40:34.504Z,8.10
2018-11-10T04:43:02.929Z,8.10
2018-11-10T04:45:31.396Z,8.10
2018-11-10T04:47:59.821Z,8.10
2018-11-10T04:50:28.254Z,8.10
2018-11-10T04:52:56.948Z,8.20
2018-11-10T04:55:25.342Z,8.20
2018-11-10T04:57:53.741Z,8.20
2018-11-10T05:00:22.432Z,8.20
2018-11-10T05:02:50.836Z,8.30
2018-11-10T05:05:19.260Z,8.20
2018-11-10T05:07:47.721Z,8.30
2018-11-10T05:10:16.133Z,8.20
2018-11-10T05:12:44.565Z,8.20
2018-11-10T05:15:13.797Z,8.20
2018-11-10T05:17:42.236Z,8.30
2018-11-10T05:20:10.749Z,8.30
2018-11-10T05:22:39.232Z,8.30
2018-11-10T05:25:08.460Z,8.30
2018-11-10T05:27:36.889Z,8.30
2018-11-10T05:30:06.696Z,8.40
2018-11-10T05:32:35.077Z,8.40
2018-11-10T05:35:03.530Z,8.40
2018-11-10T05:37:31.988Z,8.40
2018-11-10T05:40:00.404Z,8.50
2018-11-10T05:42:28.803Z,8.50
2018-11-10T05:44:57.492Z,8.50
2018-11-10T05:47:25.909Z,8.50
2018-11-10T05:49:54.308Z,8.50
2018-11-10T05:52:22.977Z,8.50
2018-11-10T05:54:51.424Z,8.50
2018-11-10T05:57:20.021Z,8.60
2018-11-10T05:59:49.152Z,8.60
2018-11-10T06:02:17.604Z,8.60
2018-11-10T06:04:46.009Z,8.50
2018-11-10T06:07:14.742Z,8.60
2018-11-10T06:09:43.181Z,8.60
2018-11-10T06:12:11.645Z,8.60
2018-11-10T06:14:40.105Z,8.60
2018-11-10T06:17:08.737Z,8.60
2018-11-10T06:19:37.149Z,8.70
2018-11-10T06:22:05.654Z,8.60
2018-11-10T06:24:34.053Z,8.60
2018-11-10T06:27:02.490Z,8.60
2018-11-10T06:29:31.128Z,8.60
2018-11-10T06:31:59.696Z,8.60
2018-11-10T06:34:28.121Z,8.60
2018-11-10T06:36:56.789Z,8.60
2018-11-10T06:39:25.867Z,8.60
2018-11-10T06:41:54.316Z,8.60
2018-11-10T06:44:22.924Z,8.60
2018-11-10T06:46:51.418Z,8.60
2018-11-10T06:49:19.813Z,8.60
2018-11-10T06:51:48.261Z,8.60
2018-11-10T06:54:16.684Z,8.60
2018-11-10T06:56:45.093Z,8.60
2018-11-10T06:59:13.875Z,8.60
2018-11-10T07:01:42.493Z,8.60
2018-11-10T07:04:10.894Z,9.30
2018-11-10T07:06:39.384Z,8.60
2018-11-10T07:09:08.997Z,8.60
2018-11-10T07:11:37.518Z,8.60
2018-11-10T07:14:06.465Z,8.60
2018-11-10T07:16:34.888Z,8.70
2018-11-10T07:19:03.352Z,8.60
2018-11-10T07:21:32.135Z,8.70
2018-11-10T07:24:00.645Z,8.70
2018-11-10T07:26:29.216Z,8.60
2018-11-10T07:28:57.828Z,8.70
2018-11-10T07:31:26.265Z,8.70
2018-11-10T07:33:54.705Z,8.70
2018-11-10T07:36:23.937Z,8.70
2018-11-10T07:38:52.427Z,8.70
2018-11-10T07:41:20.877Z,8.70
2018-11-10T07:43:49.722Z,8.80
2018-11-10T07:46:18.146Z,8.80
2018-11-10T07:48:46.536Z,8.80
2018-11-10T07:51:15.076Z,8.80
2018-11-10T07:53:43.545Z,8.90
2018-11-10T07:56:12.538Z,8.80
2018-11-10T07:58:41.379Z,8.90
2018-11-10T08:01:09.890Z,8.90
2018-11-10T08:03:38.304Z,9.00
2018-11-10T08:06:06.782Z,9.00
2018-11-10T08:08:35.244Z,9.00
2018-11-10T08:11:03.675Z,9.00
2018-11-10T08:13:32.441Z,9.10
2018-11-10T08:16:00.849Z,9.10
2018-11-10T08:18:29.322Z,9.10
2018-11-10T08:20:57.942Z,9.10
2018-11-10T08:23:26.372Z,9.20
2018-11-10T08:25:54.802Z,9.20
2018-11-10T08:28:23.584Z,9.30
2018-11-10T08:30:52.037Z,9.30
2018-11-10T08:33:20.502Z,9.30
2018-11-10T08:35:49.105Z,9.40
2018-11-10T08:38:17.538Z,9.50
2018-11-10T08:40:45.928Z,9.50
2018-11-10T08:43:14.621Z,9.60
2018-11-10T08:45:43.049Z,9.70
2018-11-10T08:48:11.464Z,9.70
2018-11-10T08:50:40.074Z,9.70
2018-11-10T08:53:08.619Z,9.70
2018-11-10T08:55:37.065Z,9.70
2018-11-10T08:58:06.120Z,9.70
2018-11-10T09:00:34.585Z,9.70
2018-11-10T09:03:03.149Z,9.70
2018-11-10T09:05:31.694Z,9.70
2018-11-10T09:08:00.141Z,9.80
2018-11-10T09:10:28.589Z,9.80
2018-11-10T09:12:57.252Z,9.90
2018-11-10T09:15:25.684Z,9.80
2018-11-10T09:17:54.265Z,9.90
2018-11-10T09:20:22.843Z,9.90
2018-11-10T09:22:51.327Z,10.00
2018-11-10T09:25:19.781Z,10.00
2018-11-10T09:27:48.310Z,10.00
2018-11-10T09:30:17.530Z,10.10
2018-11-10T09:32:46.077Z,10.20
2018-11-10T09:35:15.624Z,10.20
2018-11-10T09:37:44.559Z,10.20
2018-11-10T09:40:14.275Z,10.20
2018-11-10T09:42:43.203Z,10.10
2018-11-10T09:45:12.919Z,10.10
2018-11-10T09:47:41.467Z,10.10
2018-11-10T09:50:13.326Z,10.20
2018-11-10T09:52:42.237Z,10.30
2018-11-10T09:55:10.795Z,10.50
2018-11-10T09:57:39.646Z,10.40
2018-11-10T10:00:13.057Z,10.40
2018-11-10T10:02:42.090Z,10.50
2018-11-10T10:05:10.501Z,10.60
2018-11-10T10:07:39.776Z,10.60
2018-11-10T10:10:13.780Z,10.70
2018-11-10T10:12:42.789Z,10.80
2018-11-10T10:15:12.744Z,10.80
2018-11-10T10:17:42.428Z,10.80
2018-11-10T10:20:13.369Z,10.90
2018-11-10T10:22:42.129Z,10.90
2018-11-10T10:25:12.322Z,11.00
2018-11-10T10:27:41.009Z,11.10
2018-11-10T10:30:17.029Z,11.20
2018-11-10T10:32:46.622Z,11.20
2018-11-10T10:35:15.906Z,11.30
2018-11-10T10:37:45.573Z,11.40
2018-11-10T10:40:14.575Z,11.50
2018-11-10T10:42:43.362Z,11.60
2018-11-10T10:45:13.578Z,11.70
2018-11-10T10:47:42.242Z,11.80
2018-11-10T10:50:12.208Z,11.90
2018-11-10T10:52:40.729Z,12.00
2018-11-10T10:55:10.101Z,12.10
2018-11-10T10:57:38.668Z,12.10
2018-11-10T11:00:14.979Z,12.20
2018-11-10T11:02:48.705Z,12.20
2018-11-10T11:05:19.963Z,12.20
2018-11-10T11:07:48.380Z,12.30
2018-11-10T11:10:16.793Z,12.30
2018-11-10T11:12:46.189Z,12.30
2018-11-10T11:15:14.721Z,12.30
2018-11-10T11:17:43.125Z,12.30
2018-11-10T11:20:12.110Z,12.40
2018-11-10T11:22:40.853Z,12.40
2018-11-10T11:25:09.286Z,12.40
2018-11-10T11:27:37.760Z,12.50
2018-11-10T11:30:07.000Z,12.50
2018-11-10T11:32:35.665Z,12.50
2018-11-10T11:35:04.373Z,12.50
2018-11-10T11:37:32.793Z,12.60
2018-11-10T11:40:01.231Z,12.60
2018-11-10T11:42:29.744Z,12.60
2018-11-10T11:44:58.173Z,12.70
2018-11-10T11:47:26.640Z,12.70
2018-11-10T11:49:55.230Z,12.80
2018-11-10T11:52:23.572Z,12.80
2018-11-10T11:54:52.041Z,12.80
2018-11-10T11:57:20.843Z,12.90
2018-11-10T11:59:49.321Z,12.90
2018-11-10T12:02:17.934Z,12.90
2018-11-10T12:04:47.205Z,12.80
2018-11-10T12:07:15.660Z,12.80
2018-11-10T12:09:44.161Z,12.80
2018-11-10T12:12:12.654Z,12.70
2018-11-10T12:14:41.138Z,12.70
2018-11-10T12:17:09.598Z,12.70
2018-11-10T12:19:38.194Z,12.70
2018-11-10T12:22:06.795Z,12.70
2018-11-10T12:24:35.323Z,12.70
2018-11-10T12:27:04.045Z,12.60
2018-11-10T12:29:32.498Z,12.60
2018-11-10T12:32:01.023Z,12.60
2018-11-10T12:34:29.582Z,12.60
2018-11-10T12:36:58.145Z,12.60
2018-11-10T12:39:26.584Z,12.50
2018-11-10T12:41:55.073Z,12.50
2018-11-10T12:44:23.526Z,12.50
2018-11-10T12:46:51.985Z,12.50
2018-11-10T12:49:20.491Z,12.40
2018-11-10T12:51:48.897Z,12.40
2018-11-10T12:54:17.345Z,12.40
2018-11-10T12:56:45.981Z,12.30
2018-11-10T12:59:14.457Z,12.30
2018-11-10T13:01:42.886Z,12.30
2018-11-10T13:04:11.385Z,12.30
2018-11-10T13:06:39.832Z,12.30
2018-11-10T13:09:09.433Z,12.20
2018-11-10T13:11:38.625Z,12.20
2018-11-10T13:14:08.017Z,12.20
2018-11-10T13:16:36.547Z,12.20
2018-11-10T13:19:05.531Z,12.20
2018-11-10T13:21:34.947Z,12.10
2018-11-10T13:24:03.528Z,12.10
2018-11-10T13:26:33.061Z,12.10
2018-11-10T13:29:01.533Z,12.10
2018-11-10T13:31:30.204Z,12.00
2018-11-10T13:33:58.953Z,12.00
2018-11-10T13:36:27.415Z,12.00
2018-11-10T13:38:55.897Z,12.00
2018-11-10T13:41:24.609Z,11.80
2018-11-10T13:43:53.169Z,11.90
2018-11-10T13:46:21.543Z,11.90
2018-11-10T13:48:50.261Z,11.90
2018-11-10T13:51:18.872Z,11.80
2018-11-10T13:53:47.760Z,11.80
2018-11-10T13:56:16.486Z,11.80
2018-11-10T13:58:44.947Z,11.80
2018-11-10T14:01:13.381Z,11.80
2018-11-10T14:03:41.900Z,11.80
2018-11-10T14:06:10.392Z,11.80
2018-11-10T14:08:38.857Z,11.80
2018-11-10T14:11:07.329Z,11.80
2018-11-10T14:13:35.784Z,11.80
2018-11-10T14:16:04.335Z,11.70
2018-11-10T14:18:32.985Z,11.70
2018-11-10T14:21:01.527Z,11.70
2018-11-10T14:23:30.001Z,11.70
2018-11-10T14:25:58.487Z,11.70
2018-11-10T14:28:26.935Z,11.70
2018-11-10T14:30:55.414Z,11.70
2018-11-10T14:33:23.889Z,11.70
2018-11-10T14:35:52.393Z,11.70
2018-11-10T14:38:20.837Z,11.60
2018-11-10T14:40:49.497Z,11.60
2018-11-10T14:43:18.137Z,11.70
2018-11-10T14:45:46.625Z,11.60
2018-11-10T14:48:15.188Z,11.60
2018-11-10T14:50:43.643Z,11.60
2018-11-10T14:53:12.301Z,11.60
2018-11-10T14:55:40.625Z,11.60
2018-11-10T14:58:09.081Z,11.60
2018-11-10T15:00:37.509Z,11.60
2018-11-10T15:03:06.397Z,11.60
2018-11-10T15:05:34.870Z,11.60
2018-11-10T15:08:03.341Z,11.60
2018-11-10T15:10:31.912Z,11.50
2018-11-10T15:13:00.345Z,11.50
2018-11-10T15:15:28.781Z,11.50
2018-11-10T15:17:57.592Z,11.50
2018-11-10T15:20:26.095Z,11.40
2018-11-10T15:22:54.610Z,11.40
2018-11-10T15:25:23.467Z,11.40
2018-11-10T15:27:51.820Z,11.40
2018-11-10T15:30:21.273Z,11.40
2018-11-10T15:32:50.207Z,11.30
2018-11-10T15:35:20.377Z,11.30
2018-11-10T15:37:50.428Z,11.30
2018-11-10T15:40:19.903Z,11.30
2018-11-10T15:42:49.277Z,11.30
2018-11-10T15:45:18.952Z,11.20
2018-11-10T15:47:47.431Z,12.40
2018-11-10T15:50:17.499Z,11.20
2018-11-10T15:52:47.052Z,11.20
2018-11-10T15:55:15.548Z,11.20
2018-11-10T15:57:44.185Z,11.20
2018-11-10T16:00:17.009Z,11.20
2018-11-10T16:02:45.523Z,11.20
2018-11-10T16:05:14.536Z,11.20
2018-11-10T16:07:43.264Z,11.20
2018-11-10T16:10:12.055Z,11.20
2018-11-10T16:12:40.527Z,11.20
2018-11-10T16:15:11.320Z,11.20
2018-11-10T16:17:40.152Z,11.20
2018-11-10T16:20:12.525Z,11.20
2018-11-10T16:22:41.012Z,11.20
2018-11-10T16:25:10.189Z,11.10
2018-11-10T16:27:38.989Z,11.10
2018-11-10T16:30:09.861Z,11.10
2018-11-10T16:32:38.591Z,11.10
2018-11-10T16:35:07.289Z,11.10
2018-11-10T16:37:35.749Z,11.10
2018-11-10T16:40:06.454Z,11.10
2018-11-10T16:42:34.902Z,11.10
2018-11-10T16:45:03.332Z,11.10
2018-11-10T16:47:32.148Z,11.10
2018-11-10T16:50:00.573Z,11.10
2018-11-10T16:52:29.065Z,11.10
2018-11-10T16:54:57.956Z,11.10
2018-11-10T16:57:26.697Z,11.10
2018-11-10T16:59:55.124Z,11.10
2018-11-10T17:02:23.772Z,11.10
2018-11-10T17:04:52.255Z,11.20
2018-11-10T17:07:20.705Z,11.20
2018-11-10T17:09:49.500Z,11.20
2018-11-10T17:12:17.948Z,11.20
2018-11-10T17:14:46.420Z,11.20
2018-11-10T17:17:15.067Z,11.20
2018-11-10T17:19:43.489Z,11.20
2018-11-10T17:22:11.967Z,11.20
2018-11-10T17:24:40.764Z,11.20
2018-11-10T17:27:09.219Z,11.20
2018-11-10T17:29:37.677Z,11.20
2018-11-10T17:32:06.340Z,11.10
2018-11-10T17:34:34.820Z,11.10
2018-11-10T17:37:03.301Z,11.10
2018-11-10T17:39:32.236Z,11.10
2018-11-10T17:42:00.668Z,11.10
2018-11-10T17:44:29.113Z,11.10
2018-11-10T17:46:57.732Z,11.10
2018-11-10T17:49:26.268Z,11.10
2018-11-10T17:51:54.780Z,11.10
2018-11-10T17:54:23.588Z,11.00
2018-11-10T17:56:52.028Z,11.00
2018-11-10T17:59:20.481Z,11.00
2018-11-10T18:01:49.092Z,11.00
2018-11-10T18:04:17.426Z,11.00
2018-11-10T18:06:45.880Z,11.00
2018-11-10T18:09:14.623Z,10.90
2018-11-10T18:11:43.073Z,10.90
2018-11-10T18:14:11.534Z,10.90
2018-11-10T18:16:40.337Z,10.90
2018-11-10T18:19:08.864Z,10.90
2018-11-10T18:21:37.307Z,11.00
2018-11-10T18:24:06.163Z,11.10
2018-11-10T18:26:34.593Z,11.20
2018-11-10T18:29:03.033Z,11.20
2018-11-10T18:31:31.815Z,11.20
2018-11-10T18:34:00.228Z,11.10
2018-11-10T18:36:29.373Z,11.10
2018-11-10T18:38:58.228Z,11.10
2018-11-10T18:41:26.657Z,11.00
2018-11-10T18:43:55.113Z,11.00
2018-11-10T18:46:23.685Z,11.00
2018-11-10T18:48:52.191Z,11.00
2018-11-10T18:51:20.658Z,10.90
2018-11-10T18:53:49.413Z,10.90
2018-11-10T18:56:17.899Z,10.90
2018-11-10T18:58:46.342Z,10.90
2018-11-10T19:01:15.296Z,10.90
2018-11-10T19:03:43.733Z,10.90
2018-11-10T19:06:12.283Z,10.90
2018-11-10T19:08:40.973Z,10.90
2018-11-10T19:11:09.432Z,10.90
2018-11-10T19:13:37.991Z,10.80
2018-11-10T19:16:06.988Z,10.80
2018-11-10T19:18:35.450Z,10.80
2018-11-10T19:21:04.025Z,10.80
2018-11-10T19:23:32.972Z,10.80
2018-11-10T19:26:01.392Z,10.80
2018-11-10T19:28:29.938Z,10.90
2018-11-10T19:30:58.478Z,10.90
2018-11-10T19:33:26.921Z,10.90
2018-11-10T19:35:55.417Z,10.90
2018-11-10T19:38:24.172Z,10.90
2018-11-10T19:40:53.257Z,10.90
2018-11-10T19:43:21.983Z,11.00
2018-11-10T19:45:50.464Z,11.10
2018-11-10T19:48:18.976Z,11.10
2018-11-10T19:50:47.510Z,11.10
2018-11-10T19:53:16.993Z,11.10
2018-11-10T19:55:46.406Z,11.10
2018-11-10T19:58:14.883Z,11.10
2018-11-10T20:00:43.421Z,11.10
2018-11-10T20:03:11.988Z,11.10
2018-11-10T20:05:40.514Z,11.10
2018-11-10T20:08:09.006Z,11.20
2018-11-10T20:10:37.451Z,11.20
2018-11-10T20:13:06.078Z,11.20
2018-11-10T20:15:34.771Z,11.20
2018-11-10T20:18:03.475Z,11.30
2018-11-10T20:20:31.957Z,11.30
2018-11-10T20:23:00.979Z,11.30
2018-11-10T20:25:29.507Z,11.30
2018-11-10T20:27:57.942Z,11.40
2018-11-10T20:30:27.103Z,11.40
2018-11-10T20:32:55.616Z,11.40
2018-11-10T20:35:24.215Z,11.50
2018-11-10T20:37:52.751Z,11.50
2018-11-10T20:40:21.364Z,11.50
2018-11-10T20:42:50.093Z,11.60
2018-11-10T20:45:20.536Z,11.60
2018-11-10T20:47:48.993Z,11.70
2018-11-10T20:50:18.016Z,11.70
2018-11-10T20:52:47.101Z,11.70
2018-11-10T20:55:16.062Z,11.70
2018-11-10T20:57:44.659Z,11.70
2018-11-10T21:00:14.980Z,11.70
2018-11-10T21:02:44.276Z,11.80
2018-11-10T21:05:14.237Z,11.80
2018-11-10T21:07:42.794Z,11.80
2018-11-10T21:10:14.798Z,11.80
2018-11-10T21:12:44.380Z,11.80
2018-11-10T21:15:14.370Z,11.80
2018-11-10T21:17:43.069Z,11.90
2018-11-10T21:20:12.425Z,11.90
2018-11-10T21:22:41.264Z,11.90
2018-11-10T21:25:11.642Z,11.90
2018-11-10T21:27:40.760Z,11.90
2018-11-10T21:30:10.861Z,11.90
2018-11-10T21:32:39.343Z,11.90
2018-11-10T21:35:08.570Z,12.00
2018-11-10T21:37:37.391Z,12.00
2018-11-10T21:40:08.429Z,12.00
2018-11-10T21:42:37.041Z,12.00
2018-11-10T21:45:06.714Z,12.00
2018-11-10T21:47:35.339Z,12.40
2018-11-10T21:50:04.293Z,12.00
2018-11-10T21:52:32.774Z,12.00
2018-11-10T21:55:02.310Z,12.00
2018-11-10T21:57:30.908Z,12.00
2018-11-10T21:59:59.561Z,11.90
2018-11-10T22:02:28.768Z,12.00
2018-11-10T22:04:57.448Z,11.90
2018-11-10T22:07:25.973Z,11.90
2018-11-10T22:09:54.738Z,11.90
2018-11-10T22:12:23.149Z,11.90
2018-11-10T22:14:51.730Z,11.90
2018-11-10T22:17:20.454Z,11.80
2018-11-10T22:19:48.994Z,11.80
2018-11-10T22:22:17.478Z,11.80
2018-11-10T22:24:45.992Z,11.80
2018-11-10T22:27:14.445Z,11.80
2018-11-10T22:29:42.931Z,11.80
2018-11-10T22:32:11.594Z,11.80
2018-11-10T22:34:40.045Z,11.90
2018-11-10T22:37:08.552Z,11.90
2018-11-10T22:39:37.090Z,11.90
2018-11-10T22:42:05.565Z,11.90
2018-11-10T22:44:34.046Z,11.90
2018-11-10T22:47:03.325Z,11.90
2018-11-10T22:49:31.832Z,11.90
2018-11-10T22:52:00.393Z,11.90
2018-11-10T22:54:29.220Z,11.90
2018-11-10T22:56:57.750Z,11.90
2018-11-10T22:59:26.176Z,11.90
2018-11-10T23:01:54.946Z,11.90
2018-11-10T23:04:23.407Z,11.90
2018-11-10T23:06:51.845Z,11.90
2018-11-10T23:09:20.325Z,11.90
2018-11-10T23:11:48.784Z,11.90
2018-11-10T23:14:17.240Z,11.90
2018-11-10T23:16:45.961Z,11.90
2018-11-10T23:19:14.422Z,11.80
2018-11-10T23:21:42.861Z,11.90
2018-11-10T23:24:11.360Z,11.90
2018-11-10T23:26:39.791Z,11.90
2018-11-10T23:29:08.252Z,12.00
2018-11-10T23:31:36.891Z,12.00
2018-11-10T23:34:05.607Z,12.00
2018-11-10T23:36:34.062Z,12.00
2018-11-10T23:39:02.560Z,12.00
2018-11-10T23:41:31.003Z,12.00
2018-11-10T23:43:59.413Z,12.10
2018-11-10T23:46:27.903Z,12.10
2018-11-10T23:48:56.350Z,12.10
2018-11-10T23:51:24.795Z,12.20
2018-11-10T23:53:53.503Z,12.10
2018-11-10T23:56:22.021Z,12.10
2018-11-10T23:58:50.485Z,12.20
